Weather at Elmendorf Air Force Base

Public forecast

Using degrees Fahrenheit for public forecast. Weather courtesy of forecast.io.

Current aviation weather report (METAR) for Elmendorf Air Force Base

Retrieved 2021/10/19 22:56 UTC (58 minutes ago):

PAED 192256Z 01012KT 10SM SCT038 BKN045 04/M00 A2909

Aviation forecast (TAF) for Elmendorf Air Force Base

Retrieved 2021/10/19 18:15 UTC (6 hours ago):

TAF PAED 191800Z 1918/2100 36009KT 9999 VCSH BKN040 BKN100 620406 540406 QNH2900INS TEMPO 1919/1923 9000 -RA BKN035 BECMG 2001/2002 01012KT 9000 -SHRA BKN035 OVC060 620357 550109 QNH2900INS BECMG 2008/2009 03009KT 8000 -RA BR FEW020 OVC030 620307 540403 QNH2911INS BECMG 2018/2019 36006KT 9000 -SHRA BKN030 BKN080 620307 510109 QNH2929INS TX05/1922Z TN01/2015Z